Hdms Esbern Snare — OUFB — position and weather

sailwx.info

Track history (hours):
 
Tides and Currents Weather Stations Pressure Air Temp Water Temp Dewpoint Dewpoint Depression Visibility Wind Speed Wind Dir Waves Ship Positions

Hdms Esbern Snare

Last reported at 2016-Jun-27 14:31 UTC. Time now 2016-Jun-29 20:12 UTC.
Position N 57°26' E 010°32'.

Length 137 m.

Type: Military. MMSI: 36699999.

Date/timePositionNaut miles runAvg speedWind from/ knotsBaromVisibWave heightAir tempDewpointWater temp
2016-Jun-27 14:31N 57°26' E 010°32'0 0.0
2016-Jun-25 21:06N 57°26' E 010°32'0 0.0
2016-Jun-25 20:30N 57°26' E 010°32'0 0.0
2016-Jun-25 19:30N 57°26' E 010°32'0 0.0
2016-Jun-25 18:24N 57°26' E 010°32'0 0.0
2016-Jun-25 17:29N 57°26' E 010°32'0 0.0
2016-Jun-25 16:32N 57°26' E 010°32'0 0.0
2016-Jun-25 15:26N 57°26' E 010°32'0 0.0
2016-Jun-24 23:26N 57°26' E 010°32'0 0.0
2016-Jun-24 17:14N 57°26' E 010°32'  
2016-Jun-21 11:23N 57°26' E 010°32'6 0.8
2016-Jun-21 03:27N 57°27' E 010°43'4 4.3
2016-Jun-21 02:30N 57°32' E 010°43'4 4.0
2016-Jun-21 01:33N 57°35' E 010°44'4 3.6
2016-Jun-21 00:33N 57°39' E 010°45'3 3.4
2016-Jun-20 23:32N 57°42' E 010°45'4 3.9
2016-Jun-20 22:32N 57°46' E 010°45'4 4.1
2016-Jun-20 21:34N 57°48' E 010°38'115 9.2
2016-Jun-20 09:04N 57°42' E 007°02'5 8.8
2016-Jun-20 08:33N 57°43' E 006°53'9 9.4
2016-Jun-20 07:33N 57°43' E 006°35'9 9.6
2016-Jun-20 06:33N 57°49' E 006°21'10 9.6
2016-Jun-20 05:33N 57°55' E 006°07'10 9.8
2016-Jun-20 04:33N 58°02' E 005°53'10 9.6
2016-Jun-20 03:33N 58°08' E 005°40'3010.0
2016-Jun-20 00:33N 58°28' E 004°58'1010.3
2016-Jun-19 23:34N 58°36' E 004°44'  
Track history (hours):
 
Tides and Currents Weather Stations Pressure Air Temp Water Temp Dewpoint Dewpoint Depression Visibility Wind Speed Wind Dir Waves Ship Positions

Hdms Esbern Snare

Last reported at 2016-Jun-27 14:31 UTC. Time now 2016-Jun-29 20:12 UTC.
Position N 57°26' E 010°32'.

Length 137 m.

Type: Military. MMSI: 36699999.

Date/timePositionNaut miles runAvg speedWind from/ knotsBaromVisibWave heightAir tempDewpointWater temp
2016-Jun-27 14:31N 57°26' E 010°32'0 0.0
2016-Jun-25 21:06N 57°26' E 010°32'0 0.0
2016-Jun-25 20:30N 57°26' E 010°32'0 0.0
2016-Jun-25 19:30N 57°26' E 010°32'0 0.0
2016-Jun-25 18:24N 57°26' E 010°32'0 0.0
2016-Jun-25 17:29N 57°26' E 010°32'0 0.0
2016-Jun-25 16:32N 57°26' E 010°32'0 0.0
2016-Jun-25 15:26N 57°26' E 010°32'0 0.0
2016-Jun-24 23:26N 57°26' E 010°32'0 0.0
2016-Jun-24 17:14N 57°26' E 010°32'  
2016-Jun-21 11:23N 57°26' E 010°32'6 0.8
2016-Jun-21 03:27N 57°27' E 010°43'4 4.3
2016-Jun-21 02:30N 57°32' E 010°43'4 4.0
2016-Jun-21 01:33N 57°35' E 010°44'4 3.6
2016-Jun-21 00:33N 57°39' E 010°45'3 3.4
2016-Jun-20 23:32N 57°42' E 010°45'4 3.9
2016-Jun-20 22:32N 57°46' E 010°45'4 4.1
2016-Jun-20 21:34N 57°48' E 010°38'115 9.2
2016-Jun-20 09:04N 57°42' E 007°02'5 8.8
2016-Jun-20 08:33N 57°43' E 006°53'9 9.4
2016-Jun-20 07:33N 57°43' E 006°35'9 9.6
2016-Jun-20 06:33N 57°49' E 006°21'10 9.6
2016-Jun-20 05:33N 57°55' E 006°07'10 9.8
2016-Jun-20 04:33N 58°02' E 005°53'10 9.6
2016-Jun-20 03:33N 58°08' E 005°40'3010.0
2016-Jun-20 00:33N 58°28' E 004°58'1010.3
2016-Jun-19 23:34N 58°36' E 004°44'  

Dump ship's entire track history